Time;durP1;ratioP1;P1;durP2;ratioP2;P2;SDS_P1;SDS_P2;PMS_P1;PMS_P2;Temp;Humidity;BMP_temperature;BMP_pressure;BME280_temperature;BME280_humidity;BME280_pressure;Samples;Min_cycle;Max_cycle;Signal;HPM_P1;HPM_P2
2024/01/30 00:00:39;;;;;;;15.90;7.47;;;9.70;58.40;;;;;;6253864;28;20018;-73
2024/01/30 00:03:40;;;;;;;25.55;9.38;;;9.70;58.40;;;;;;6237985;28;20120;-72
2024/01/30 00:06:41;;;;;;;19.45;7.07;;;9.70;58.40;;;;;;6255564;28;20021;-72
2024/01/30 00:09:43;;;;;;;24.38;10.05;;;9.70;59.00;;;;;;6252071;28;20484;-74
2024/01/30 00:12:44;;;;;;;17.58;7.50;;;9.70;58.40;;;;;;6256650;28;20504;-73
2024/01/30 00:15:44;;;;;;;20.50;8.68;;;9.60;58.40;;;;;;6254559;28;20017;-73
2024/01/30 00:18:45;;;;;;;19.35;8.93;;;9.70;58.40;;;;;;6255443;28;20122;-73
2024/01/30 00:21:46;;;;;;;26.13;9.27;;;9.70;58.40;;;;;;6246507;28;20017;-74
2024/01/30 00:24:47;;;;;;;18.77;8.45;;;9.70;58.40;;;;;;6249291;28;20116;-74
2024/01/30 00:27:48;;;;;;;20.52;8.55;;;9.70;58.40;;;;;;6252165;28;20045;-75
2024/01/30 00:30:49;;;;;;;17.30;8.10;;;9.70;58.50;;;;;;6255260;28;20036;-73
2024/01/30 00:33:50;;;;;;;19.48;8.65;;;9.70;58.50;;;;;;6245464;28;20036;-73
2024/01/30 00:36:51;;;;;;;24.30;8.80;;;9.70;58.50;;;;;;6255353;28;20035;-73
2024/01/30 00:39:52;;;;;;;19.17;8.50;;;9.70;58.60;;;;;;6222259;28;20025;-74
2024/01/30 00:42:53;;;;;;;21.90;8.68;;;9.70;58.70;;;;;;6256169;28;20028;-73
2024/01/30 00:45:54;;;;;;;19.23;8.98;;;9.70;58.80;;;;;;6270811;28;20029;-73
2024/01/30 00:48:55;;;;;;;24.50;8.82;;;9.60;58.80;;;;;;6256459;28;20481;-73
2024/01/30 00:51:55;;;;;;;26.67;8.15;;;9.70;58.80;;;;;;6255927;28;20036;-73
2024/01/30 00:54:56;;;;;;;14.25;7.20;;;9.70;58.80;;;;;;6251134;28;20055;-76
2024/01/30 00:57:57;;;;;;;17.58;7.82;;;9.60;58.70;;;;;;6247183;28;20404;-74
2024/01/30 01:00:58;;;;;;;28.55;8.95;;;9.60;58.90;;;;;;6243758;28;20468;-74
2024/01/30 01:04:00;;;;;;;26.30;8.77;;;9.50;59.60;;;;;;6264544;28;20040;-72
2024/01/30 01:07:01;;;;;;;19.05;7.97;;;9.50;59.10;;;;;;6259031;28;20438;-73
2024/01/30 01:10:02;;;;;;;18.75;8.50;;;9.40;59.20;;;;;;6258915;28;20437;-74
2024/01/30 01:13:03;;;;;;;20.42;8.60;;;9.40;59.20;;;;;;6258696;28;20486;-74
2024/01/30 01:16:06;;;;;;;23.40;8.27;;;9.40;59.40;;;;;;6257624;28;20158;-74
2024/01/30 01:19:07;;;;;;;16.77;8.15;;;9.30;59.40;;;;;;6257735;28;20086;-73
2024/01/30 01:22:08;;;;;;;20.70;8.13;;;9.30;59.50;;;;;;6258526;28;20020;-73
2024/01/30 01:25:10;;;;;;;21.52;7.75;;;9.30;59.50;;;;;;6271218;28;20118;-73
2024/01/30 01:28:10;;;;;;;18.17;7.70;;;9.30;59.40;;;;;;6242796;28;20033;-73
2024/01/30 01:31:13;;;;;;;23.15;8.15;;;9.30;59.50;;;;;;6245824;28;20424;-73
2024/01/30 01:34:14;;;;;;;23.48;8.65;;;9.30;59.50;;;;;;6280846;28;20856;-74
2024/01/30 01:37:16;;;;;;;22.45;8.43;;;9.30;59.60;;;;;;6250885;28;20037;-74
2024/01/30 01:40:16;;;;;;;20.50;7.70;;;9.30;59.60;;;;;;6262169;28;20179;-74
2024/01/30 01:43:17;;;;;;;21.67;8.48;;;9.30;59.50;;;;;;6260297;28;20036;-73
2024/01/30 01:46:19;;;;;;;19.98;8.82;;;9.30;59.40;;;;;;6254873;28;20064;-73
2024/01/30 01:49:22;;;;;;;24.75;9.52;;;9.40;59.40;;;;;;6253000;28;20065;-74
2024/01/30 01:52:23;;;;;;;16.58;8.57;;;9.40;59.40;;;;;;6249811;28;20041;-74
2024/01/30 01:55:27;;;;;;;24.27;8.73;;;9.50;59.30;;;;;;6286873;28;20086;-74
2024/01/30 01:58:29;;;;;;;25.45;8.65;;;9.50;59.30;;;;;;6284298;28;20124;-73
2024/01/30 02:01:32;;;;;;;16.92;8.02;;;9.50;59.20;;;;;;6252726;28;20139;-73
2024/01/30 02:04:33;;;;;;;15.77;6.88;;;9.50;59.20;;;;;;6265134;28;20036;-73
2024/01/30 02:07:34;;;;;;;22.48;7.80;;;9.50;59.20;;;;;;6258612;28;20029;-73
2024/01/30 02:10:35;;;;;;;23.52;9.43;;;9.50;59.20;;;;;;6251169;28;20528;-74
2024/01/30 02:13:37;;;;;;;16.67;7.72;;;9.50;59.30;;;;;;6250712;28;20079;-73
2024/01/30 02:16:37;;;;;;;19.60;8.27;;;9.50;59.40;;;;;;6246658;28;20489;-73
2024/01/30 02:19:38;;;;;;;14.23;7.13;;;9.50;59.50;;;;;;6256820;28;20077;-73
2024/01/30 02:22:40;;;;;;;25.02;8.68;;;9.50;59.50;;;;;;6250742;28;20056;-74
2024/01/30 02:25:44;;;;;;;15.95;8.20;;;9.50;59.50;;;;;;6244547;28;20083;-72
2024/01/30 02:28:44;;;;;;;14.70;7.38;;;9.50;59.50;;;;;;6256164;28;20400;-73
2024/01/30 02:31:45;;;;;;;19.17;7.15;;;9.50;59.40;;;;;;6264132;28;20013;-74
2024/01/30 02:34:46;;;;;;;16.48;7.40;;;9.50;59.40;;;;;;6265572;28;20480;-73
2024/01/30 02:37:47;;;;;;;20.70;8.75;;;9.50;59.40;;;;;;6254947;28;20025;-72
2024/01/30 02:40:48;;;;;;;17.63;8.25;;;9.50;59.40;;;;;;6272367;28;20028;-73
2024/01/30 02:43:49;;;;;;;18.85;7.20;;;9.50;59.40;;;;;;6256075;28;20047;-74
2024/01/30 02:46:49;;;;;;;20.00;9.15;;;9.50;59.30;;;;;;6249311;28;20026;-74
2024/01/30 02:49:50;;;;;;;19.80;7.80;;;9.50;59.40;;;;;;6255366;28;20639;-74
2024/01/30 02:52:51;;;;;;;22.13;7.85;;;9.50;59.40;;;;;;6281831;28;20850;-74
2024/01/30 02:55:54;;;;;;;22.50;9.00;;;9.50;59.40;;;;;;6252820;28;20029;-73
2024/01/30 02:58:55;;;;;;;20.55;8.32;;;9.50;59.30;;;;;;6239255;28;20040;-73
2024/01/30 03:01:56;;;;;;;22.70;8.52;;;9.60;59.30;;;;;;6255586;28;20029;-73
2024/01/30 03:04:57;;;;;;;22.70;8.73;;;9.50;59.30;;;;;;6264588;28;20025;-73
2024/01/30 03:07:58;;;;;;;23.63;7.80;;;9.50;59.40;;;;;;6256380;28;20055;-74
2024/01/30 03:10:58;;;;;;;23.25;8.02;;;9.40;59.40;;;;;;6250011;28;20428;-73
2024/01/30 03:14:00;;;;;;;25.33;8.73;;;9.30;59.50;;;;;;6256891;28;20086;-73
2024/01/30 03:17:01;;;;;;;14.15;7.90;;;9.30;59.60;;;;;;6233701;28;20033;-74
2024/01/30 03:20:03;;;;;;;15.77;8.15;;;9.20;59.60;;;;;;6255235;28;20022;-73
2024/01/30 03:23:04;;;;;;;22.88;8.95;;;9.20;59.80;;;;;;6270962;28;20451;-72
2024/01/30 03:26:06;;;;;;;16.83;7.80;;;9.20;59.90;;;;;;6248366;28;20024;-72
2024/01/30 03:29:07;;;;;;;22.08;8.30;;;9.20;60.00;;;;;;6252898;28;20056;-72
2024/01/30 03:32:08;;;;;;;24.55;9.45;;;9.20;60.00;;;;;;6247900;28;20107;-72
2024/01/30 03:35:10;;;;;;;23.88;8.52;;;9.20;60.10;;;;;;6251547;28;20095;-75
2024/01/30 03:38:10;;;;;;;19.30;7.57;;;9.20;60.20;;;;;;6284448;28;20021;-73
2024/01/30 03:41:11;;;;;;;16.60;6.90;;;9.10;60.10;;;;;;6252109;28;20121;-72
2024/01/30 03:44:12;;;;;;;21.70;8.60;;;9.10;60.20;;;;;;6237697;28;20394;-74
2024/01/30 03:47:13;;;;;;;20.35;8.18;;;9.10;60.40;;;;;;6285636;28;20043;-73
2024/01/30 03:50:15;;;;;;;19.65;8.30;;;9.00;60.40;;;;;;6256709;28;20123;-73
2024/01/30 03:53:16;;;;;;;18.85;7.88;;;9.00;60.50;;;;;;6237502;28;20087;-74
2024/01/30 03:56:17;;;;;;;19.15;7.93;;;9.00;60.50;;;;;;6259847;28;20202;-72
2024/01/30 03:59:22;;;;;;;20.05;7.32;;;9.00;60.60;;;;;;6254254;28;20303;-74
2024/01/30 04:02:23;;;;;;;22.17;8.13;;;9.00;60.70;;;;;;6246716;28;20013;-72
2024/01/30 04:05:24;;;;;;;20.42;8.77;;;9.00;60.80;;;;;;6255326;28;20088;-72
2024/01/30 04:08:24;;;;;;;23.92;8.07;;;8.90;60.90;;;;;;6253444;28;20036;-72
2024/01/30 04:11:25;;;;;;;26.58;8.00;;;8.90;61.00;;;;;;6264441;28;20368;-75
2024/01/30 04:14:26;;;;;;;17.23;7.10;;;8.90;61.00;;;;;;6248206;28;20091;-72
2024/01/30 04:17:28;;;;;;;17.20;7.97;;;8.90;61.00;;;;;;6249029;28;20021;-73
2024/01/30 04:20:29;;;;;;;19.73;8.15;;;8.80;60.90;;;;;;6250868;28;20074;-73
2024/01/30 04:23:30;;;;;;;16.95;7.35;;;8.80;61.10;;;;;;6247563;28;20030;-72
2024/01/30 04:26:31;;;;;;;15.55;7.53;;;8.80;61.30;;;;;;6277582;28;20134;-74
2024/01/30 04:29:33;;;;;;;18.55;8.50;;;8.80;61.30;;;;;;6254165;28;20033;-73
2024/01/30 04:32:34;;;;;;;26.00;7.95;;;8.80;61.30;;;;;;6250331;28;20036;-73
2024/01/30 04:35:37;;;;;;;19.77;8.00;;;8.80;61.30;;;;;;6260002;28;20033;-72
2024/01/30 04:38:39;;;;;;;17.15;7.75;;;8.80;61.30;;;;;;6287537;28;20103;-73
2024/01/30 04:41:39;;;;;;;19.58;7.20;;;8.80;61.30;;;;;;6263185;28;20028;-72
2024/01/30 04:44:40;;;;;;;16.17;7.30;;;8.80;61.40;;;;;;6253951;28;20018;-72
2024/01/30 04:47:41;;;;;;;19.52;7.95;;;8.70;61.30;;;;;;6248198;28;20163;-73
2024/01/30 04:50:42;;;;;;;22.02;8.50;;;8.70;61.40;;;;;;6252101;28;20017;-73
2024/01/30 04:53:43;;;;;;;15.30;7.28;;;8.70;61.60;;;;;;6254882;28;20021;-73
2024/01/30 04:56:44;;;;;;;18.83;7.90;;;8.60;61.60;;;;;;6241021;28;20021;-74
2024/01/30 04:59:45;;;;;;;22.15;7.35;;;8.60;61.70;;;;;;6258675;28;20054;-73
2024/01/30 05:02:46;;;;;;;19.40;7.18;;;8.60;61.80;;;;;;6255915;28;20028;-72
2024/01/30 05:05:47;;;;;;;18.13;7.25;;;8.60;61.70;;;;;;6243105;28;20650;-73
2024/01/30 05:08:48;;;;;;;13.35;6.95;;;8.50;61.80;;;;;;6237725;28;20570;-72
2024/01/30 05:11:50;;;;;;;21.48;8.60;;;8.50;61.90;;;;;;6242466;28;20034;-72
2024/01/30 05:14:51;;;;;;;14.32;7.72;;;8.50;62.00;;;;;;6253545;28;20021;-73
2024/01/30 05:17:52;;;;;;;16.20;7.07;;;8.50;62.10;;;;;;6238114;28;20026;-72
2024/01/30 05:20:52;;;;;;;13.95;8.23;;;8.50;62.20;;;;;;6268665;28;20183;-74
2024/01/30 05:23:53;;;;;;;17.63;8.20;;;8.50;62.10;;;;;;6259132;28;20021;-72
2024/01/30 05:26:54;;;;;;;18.67;7.75;;;8.50;62.20;;;;;;6246056;28;20446;-74
2024/01/30 05:29:55;;;;;;;18.92;7.75;;;8.50;62.10;;;;;;6257015;28;20480;-72
2024/01/30 05:32:55;;;;;;;19.70;8.10;;;8.50;62.20;;;;;;6263955;28;20028;-72
2024/01/30 05:35:56;;;;;;;17.33;8.43;;;8.50;62.20;;;;;;6267533;28;20028;-72
2024/01/30 05:38:57;;;;;;;20.20;6.55;;;8.60;62.20;;;;;;6264475;28;20033;-70
2024/01/30 05:41:58;;;;;;;12.45;5.70;;;8.60;62.10;;;;;;6260917;28;20229;-72
2024/01/30 05:45:01;;;;;;;15.68;7.55;;;8.60;62.00;;;;;;6261071;28;20020;-72
2024/01/30 05:48:02;;;;;;;10.32;5.60;;;8.60;61.90;;;;;;6261293;28;20099;-73
2024/01/30 05:51:04;;;;;;;21.83;6.90;;;8.50;62.00;;;;;;6263807;28;20027;-73
2024/01/30 05:54:05;;;;;;;15.75;7.80;;;8.50;62.10;;;;;;6260954;28;20021;-73
2024/01/30 05:57:07;;;;;;;18.25;8.82;;;8.50;62.10;;;;;;6261754;28;20017;-73
2024/01/30 06:00:10;;;;;;;15.43;7.30;;;8.50;62.10;;;;;;6262957;28;20418;-73
2024/01/30 06:03:11;;;;;;;19.77;8.65;;;8.50;62.10;;;;;;6265989;28;20075;-73
2024/01/30 06:06:12;;;;;;;16.25;8.32;;;8.50;62.20;;;;;;6262425;28;20021;-71
2024/01/30 06:09:14;;;;;;;16.75;7.32;;;8.50;62.30;;;;;;6260263;28;20046;-73
2024/01/30 06:12:14;;;;;;;17.90;7.47;;;8.40;62.40;;;;;;6263618;28;20102;-72
2024/01/30 06:15:16;;;;;;;16.33;7.35;;;8.40;62.50;;;;;;6262989;28;20404;-75
2024/01/30 06:18:18;;;;;;;16.13;8.15;;;8.40;62.60;;;;;;6266999;28;20097;-73
2024/01/30 06:21:18;;;;;;;34.55;7.82;;;8.40;62.60;;;;;;6260955;28;20020;-73
2024/01/30 06:24:19;;;;;;;18.48;7.15;;;8.30;62.60;;;;;;6259014;28;20084;-74
2024/01/30 06:27:21;;;;;;;16.42;7.38;;;8.30;62.70;;;;;;6249461;28;20059;-72
2024/01/30 06:30:22;;;;;;;10.30;6.38;;;8.30;62.60;;;;;;6261406;28;20020;-74
2024/01/30 06:33:24;;;;;;;14.57;7.03;;;8.30;62.70;;;;;;6247248;28;20835;-73
2024/01/30 06:36:25;;;;;;;16.73;8.48;;;8.30;62.80;;;;;;6246238;28;20588;-72
2024/01/30 06:39:27;;;;;;;21.38;8.48;;;8.30;62.80;;;;;;6233396;28;20043;-73
2024/01/30 06:42:27;;;;;;;18.55;7.85;;;8.30;62.80;;;;;;6249742;28;20091;-75
2024/01/30 06:45:28;;;;;;;15.07;6.57;;;8.30;62.80;;;;;;6247569;28;20544;-74
2024/01/30 06:48:29;;;;;;;11.90;6.47;;;8.30;62.80;;;;;;6245612;28;20029;-73
2024/01/30 06:51:31;;;;;;;14.70;6.40;;;8.30;62.70;;;;;;6256506;28;20056;-75
2024/01/30 06:54:33;;;;;;;18.98;8.52;;;8.20;62.70;;;;;;6265499;28;20088;-73
2024/01/30 06:57:33;;;;;;;25.10;6.72;;;8.20;62.80;;;;;;6248426;28;20032;-72
2024/01/30 07:00:34;;;;;;;16.20;7.10;;;8.20;62.70;;;;;;6250290;28;20457;-74
2024/01/30 07:03:35;;;;;;;17.23;7.07;;;8.10;62.70;;;;;;6249940;28;20155;-74
2024/01/30 07:06:36;;;;;;;14.55;5.60;;;8.10;62.80;;;;;;6254104;28;20060;-74
2024/01/30 07:09:37;;;;;;;14.15;6.20;;;8.00;62.90;;;;;;6267556;28;20434;-74
2024/01/30 07:12:37;;;;;;;13.02;6.45;;;8.00;63.10;;;;;;6243342;28;20044;-74
2024/01/30 07:15:39;;;;;;;13.68;5.97;;;7.90;63.30;;;;;;6270363;28;20651;-74
2024/01/30 07:18:40;;;;;;;32.33;6.65;;;7.90;63.40;;;;;;6253400;28;20071;-72
2024/01/30 07:21:41;;;;;;;16.90;6.45;;;7.80;63.40;;;;;;6251060;28;20029;-73
2024/01/30 07:24:47;;;;;;;20.55;6.30;;;7.80;63.50;;;;;;6262152;28;20028;-74
2024/01/30 07:27:47;;;;;;;16.92;6.38;;;7.80;63.70;;;;;;6245927;28;20029;-73
2024/01/30 07:30:48;;;;;;;13.10;6.40;;;7.80;63.80;;;;;;6283842;28;20141;-72
2024/01/30 07:33:50;;;;;;;10.07;5.35;;;7.80;63.80;;;;;;6255143;28;20041;-74
2024/01/30 07:36:51;;;;;;;17.50;7.15;;;7.80;63.80;;;;;;6252363;28;20028;-74
2024/01/30 07:39:51;;;;;;;14.60;7.32;;;7.80;63.80;;;;;;6233938;28;20665;-74
2024/01/30 07:42:54;;;;;;;19.08;8.13;;;7.80;63.70;;;;;;6252721;28;20036;-73
2024/01/30 07:45:55;;;;;;;24.02;8.07;;;7.80;63.80;;;;;;6237016;28;20037;-74
2024/01/30 07:48:57;;;;;;;16.30;7.20;;;7.80;63.90;;;;;;6251990;28;20214;-73
2024/01/30 07:51:58;;;;;;;14.75;6.82;;;7.80;63.90;;;;;;6221919;28;20044;-74
2024/01/30 07:55:33;;;;;;;11.55;6.40;;;7.80;63.90;;;;;;6262897;28;20036;-73
2024/01/30 07:58:51;;;;;;;11.63;5.50;;;7.80;63.90;;;;;;6241601;28;20588;-73
2024/01/30 08:01:53;;;;;;;13.73;7.18;;;7.80;63.90;;;;;;6252375;28;20167;-73
2024/01/30 08:04:53;;;;;;;21.65;8.05;;;7.80;64.00;;;;;;6232590;28;20059;-73
2024/01/30 08:07:55;;;;;;;22.23;7.47;;;7.90;64.10;;;;;;6245100;28;20163;-73
2024/01/30 08:10:56;;;;;;;22.77;7.50;;;7.90;64.00;;;;;;6275949;28;20025;-73
2024/01/30 08:13:56;;;;;;;27.80;7.25;;;8.00;64.00;;;;;;6248032;28;20036;-73
2024/01/30 08:16:57;;;;;;;21.67;7.53;;;8.00;63.90;;;;;;6259902;28;20052;-74
2024/01/30 08:19:58;;;;;;;14.77;7.97;;;8.00;63.90;;;;;;6238970;28;20051;-73
2024/01/30 08:23:00;;;;;;;23.13;7.00;;;8.10;63.80;;;;;;6232399;28;20074;-71
2024/01/30 08:26:02;;;;;;;18.90;8.40;;;8.20;63.80;;;;;;6245837;28;20131;-72
2024/01/30 08:29:03;;;;;;;17.65;7.68;;;8.20;63.70;;;;;;6242034;28;20094;-73
2024/01/30 08:32:07;;;;;;;19.92;8.10;;;8.30;63.60;;;;;;6234335;28;20104;-73
2024/01/30 08:35:08;;;;;;;19.90;7.72;;;8.30;63.30;;;;;;6247873;28;20037;-73
2024/01/30 08:38:12;;;;;;;21.75;6.95;;;8.30;63.10;;;;;;6274420;28;20076;-73
2024/01/30 08:41:13;;;;;;;24.25;9.20;;;8.30;63.10;;;;;;6241460;28;20029;-72
2024/01/30 08:44:13;;;;;;;12.02;7.10;;;8.40;63.20;;;;;;6248741;28;20045;-74
2024/01/30 08:47:16;;;;;;;19.52;8.77;;;8.40;63.20;;;;;;6251440;28;20020;-73
2024/01/30 08:50:17;;;;;;;13.77;6.95;;;8.40;63.20;;;;;;6254320;28;20164;-71
2024/01/30 08:53:19;;;;;;;16.50;8.00;;;8.50;63.20;;;;;;6264390;28;20046;-73
2024/01/30 08:56:21;;;;;;;15.05;7.07;;;8.50;63.00;;;;;;6247913;28;20017;-74
2024/01/30 08:59:22;;;;;;;18.23;7.80;;;8.50;63.00;;;;;;6234770;28;20027;-73
2024/01/30 09:02:23;;;;;;;14.55;7.82;;;8.60;63.00;;;;;;6266925;28;20041;-73
2024/01/30 09:05:26;;;;;;;17.13;7.45;;;8.60;62.90;;;;;;6264003;28;20125;-75
2024/01/30 09:08:27;;;;;;;20.00;8.23;;;8.70;62.80;;;;;;6259647;28;20033;-73
2024/01/30 09:11:27;;;;;;;16.38;7.55;;;8.90;62.80;;;;;;6236543;28;20112;-73
2024/01/30 09:14:29;;;;;;;21.60;7.50;;;9.00;62.50;;;;;;6248804;28;20132;-74
2024/01/30 09:17:30;;;;;;;17.17;7.20;;;9.10;62.00;;;;;;6240149;28;20776;-73
2024/01/30 09:20:31;;;;;;;15.02;6.85;;;9.20;61.60;;;;;;6240606;28;21468;-73
2024/01/30 09:23:33;;;;;;;15.27;7.47;;;9.40;61.40;;;;;;6250785;28;20049;-75
2024/01/30 09:26:34;;;;;;;14.82;6.88;;;9.40;61.00;;;;;;6255387;28;20028;-74
2024/01/30 09:29:36;;;;;;;17.90;7.05;;;9.50;60.40;;;;;;6252071;28;20540;-74
2024/01/30 09:32:39;;;;;;;36.60;8.15;;;9.60;60.20;;;;;;6254318;28;20056;-74
2024/01/30 09:35:40;;;;;;;16.30;7.18;;;9.80;60.30;;;;;;6263025;28;20017;-74
2024/01/30 09:38:41;;;;;;;23.95;8.13;;;10.00;60.00;;;;;;6232080;28;20048;-75
2024/01/30 09:41:49;;;;;;;19.17;8.25;;;10.10;59.80;;;;;;6251069;28;20095;-73
2024/01/30 09:44:53;;;;;;;24.58;10.75;;;10.30;59.40;;;;;;6240093;28;20095;-75
2024/01/30 09:47:54;;;;;;;23.20;9.23;;;10.50;58.90;;;;;;6252319;28;20036;-72
2024/01/30 09:50:57;;;;;;;15.95;7.70;;;10.50;58.70;;;;;;6245890;28;20118;-73
2024/01/30 09:54:00;;;;;;;15.77;7.75;;;10.60;58.80;;;;;;6239709;28;20021;-75
2024/01/30 09:57:00;;;;;;;22.58;7.80;;;10.70;58.60;;;;;;6236570;28;20076;-72
2024/01/30 10:00:07;;;;;;;20.52;6.78;;;10.80;58.50;;;;;;6237794;28;20065;-73
2024/01/30 10:03:14;;;;;;;16.55;8.07;;;11.00;58.20;;;;;;6253380;28;20037;-72
2024/01/30 10:06:17;;;;;;;22.80;8.15;;;11.10;58.10;;;;;;6240972;28;20084;-74
2024/01/30 10:09:18;;;;;;;26.40;8.80;;;11.20;57.80;;;;;;6252384;28;20148;-74
2024/01/30 10:12:19;;;;;;;17.63;8.73;;;11.30;57.60;;;;;;6238310;28;20033;-74
2024/01/30 10:15:19;;;;;;;20.55;9.55;;;11.40;57.60;;;;;;6234674;28;20029;-74
2024/01/30 10:18:23;;;;;;;19.67;9.27;;;11.60;57.50;;;;;;6247854;28;20547;-72
2024/01/30 10:21:24;;;;;;;20.83;10.10;;;11.90;57.20;;;;;;6265461;28;20017;-73
2024/01/30 10:24:26;;;;;;;18.73;9.20;;;12.40;56.50;;;;;;6252903;28;20066;-74
2024/01/30 10:27:27;;;;;;;18.90;9.00;;;12.70;55.90;;;;;;6247875;28;20638;-73
2024/01/30 10:30:28;;;;;;;17.08;9.10;;;12.90;55.30;;;;;;6247187;28;20029;-74
2024/01/30 10:33:30;;;;;;;17.52;8.95;;;13.10;54.80;;;;;;6264497;28;20036;-74
2024/01/30 10:36:35;;;;;;;17.15;8.63;;;13.30;54.60;;;;;;6251986;28;20341;-73
2024/01/30 10:39:39;;;;;;;17.80;8.85;;;13.40;54.50;;;;;;6256027;28;20048;-73
2024/01/30 10:42:45;;;;;;;22.15;9.05;;;13.50;53.70;;;;;;6251989;28;20017;-74
2024/01/30 10:45:49;;;;;;;20.25;9.65;;;13.70;53.60;;;;;;6251473;28;20025;-74
2024/01/30 10:49:00;;;;;;;17.70;8.52;;;14.00;53.30;;;;;;6253880;28;20202;-73
2024/01/30 10:52:03;;;;;;;22.23;10.05;;;14.30;52.50;;;;;;6263597;28;20029;-73
2024/01/30 10:55:06;;;;;;;21.23;9.07;;;14.50;52.00;;;;;;6253026;28;20083;-74
2024/01/30 10:58:08;;;;;;;17.42;9.02;;;14.70;51.40;;;;;;6268756;28;20106;-73
2024/01/30 11:01:09;;;;;;;21.48;8.38;;;14.60;50.70;;;;;;6242000;28;20033;-74
2024/01/30 11:04:10;;;;;;;18.52;8.43;;;14.90;50.70;;;;;;6237475;28;20025;-73
2024/01/30 11:07:16;;;;;;;23.85;8.80;;;15.00;50.00;;;;;;6269295;28;20097;-73
2024/01/30 11:10:17;;;;;;;30.35;11.75;;;15.20;49.50;;;;;;6242391;28;20033;-73
2024/01/30 11:13:19;;;;;;;18.52;7.38;;;15.30;49.20;;;;;;6249361;28;20055;-74
2024/01/30 11:16:21;;;;;;;17.02;8.02;;;15.50;48.70;;;;;;6240667;28;20403;-74
2024/01/30 11:19:31;;;;;;;15.98;7.63;;;15.50;48.10;;;;;;6227385;28;20029;-71
2024/01/30 11:22:34;;;;;;;17.65;7.50;;;15.50;47.80;;;;;;6282366;28;20021;-73
2024/01/30 11:25:35;;;;;;;18.52;8.85;;;15.40;47.80;;;;;;6254666;28;20547;-71
2024/01/30 11:28:38;;;;;;;14.98;6.65;;;15.40;47.50;;;;;;6254881;28;20043;-75
2024/01/30 11:31:39;;;;;;;13.13;6.93;;;15.60;47.20;;;;;;6242640;28;20733;-74
2024/01/30 11:34:41;;;;;;;15.73;6.85;;;15.50;46.90;;;;;;6250499;28;20017;-72
2024/01/30 11:37:45;;;;;;;17.80;7.22;;;15.50;47.00;;;;;;6247984;28;20031;-74
2024/01/30 11:40:46;;;;;;;11.60;6.60;;;15.50;47.10;;;;;;6265075;28;20035;-72
2024/01/30 11:43:53;;;;;;;23.08;8.30;;;15.60;47.20;;;;;;6252270;28;20021;-74
2024/01/30 11:46:55;;;;;;;18.05;8.27;;;15.60;46.90;;;;;;6246896;28;20591;-73
2024/01/30 11:49:57;;;;;;;15.30;8.00;;;15.80;46.60;;;;;;6246437;28;20036;-73
2024/01/30 11:52:59;;;;;;;27.45;9.38;;;16.00;46.10;;;;;;6243242;28;20043;-74
2024/01/30 11:56:00;;;;;;;13.85;8.02;;;16.30;45.70;;;;;;6251947;28;20501;-73
2024/01/30 11:59:01;;;;;;;16.55;8.40;;;16.50;45.20;;;;;;6278580;28;20090;-74
2024/01/30 12:02:04;;;;;;;22.58;9.80;;;16.70;44.70;;;;;;6242917;28;20033;-72
2024/01/30 12:05:06;;;;;;;18.70;9.50;;;17.10;44.30;;;;;;6274506;28;20198;-74
2024/01/30 12:08:15;;;;;;;16.23;7.78;;;17.50;43.90;;;;;;6244144;28;20052;-75
2024/01/30 12:11:16;;;;;;;22.65;9.20;;;17.70;43.40;;;;;;6244532;28;20081;-75
2024/01/30 12:14:17;;;;;;;16.30;7.60;;;17.60;43.00;;;;;;6251568;28;20124;-74
2024/01/30 12:17:31;;;;;;;17.02;7.68;;;17.50;42.90;;;;;;6241545;28;20026;-74
2024/01/30 12:20:32;;;;;;;15.73;8.07;;;17.30;43.00;;;;;;6246533;28;20037;-73
2024/01/30 12:23:34;;;;;;;21.15;8.07;;;17.00;44.00;;;;;;6238282;28;20069;-72
2024/01/30 12:26:36;;;;;;;20.23;8.05;;;16.80;43.40;;;;;;6235194;28;20025;-76
2024/01/30 12:29:36;;;;;;;14.73;7.53;;;16.60;43.70;;;;;;6250747;28;20044;-73
2024/01/30 12:32:42;;;;;;;17.80;7.50;;;16.40;44.10;;;;;;6247289;28;20089;-77
2024/01/30 12:35:50;;;;;;;22.30;7.47;;;16.20;44.60;;;;;;6245070;28;20682;-74
2024/01/30 12:38:51;;;;;;;12.98;7.13;;;16.00;45.00;;;;;;6276305;28;20033;-73
2024/01/30 12:41:52;;;;;;;22.27;6.38;;;15.90;45.00;;;;;;6239346;28;20094;-74
2024/01/30 12:44:53;;;;;;;14.68;7.00;;;15.80;45.10;;;;;;6242084;28;20831;-72
2024/01/30 12:47:55;;;;;;;17.67;7.32;;;15.80;45.30;;;;;;6242126;28;20041;-75
2024/01/30 12:50:56;;;;;;;24.38;7.53;;;15.70;45.20;;;;;;6240989;28;20619;-74
2024/01/30 12:53:57;;;;;;;17.20;7.00;;;15.70;46.00;;;;;;6241249;28;20021;-74
2024/01/30 12:56:59;;;;;;;13.75;7.38;;;15.60;45.40;;;;;;6252025;28;20068;-72
2024/01/30 13:00:00;;;;;;;18.38;8.85;;;15.60;45.50;;;;;;6238165;28;20025;-73
2024/01/30 13:03:01;;;;;;;18.23;7.45;;;15.50;45.60;;;;;;6264453;28;20251;-74
2024/01/30 13:06:04;;;;;;;19.85;7.88;;;15.50;45.70;;;;;;6249329;28;20029;-75
2024/01/30 13:09:05;;;;;;;18.98;7.35;;;15.50;45.90;;;;;;6248778;28;20093;-73
2024/01/30 13:12:06;;;;;;;20.42;8.20;;;15.50;46.00;;;;;;6254842;28;20025;-73
2024/01/30 13:15:11;;;;;;;24.83;8.18;;;15.50;46.10;;;;;;6255291;28;20056;-73
2024/01/30 13:18:12;;;;;;;18.05;7.70;;;15.50;46.10;;;;;;6248127;28;20020;-74
2024/01/30 13:21:14;;;;;;;19.30;7.80;;;15.50;46.10;;;;;;6240387;28;20091;-73
2024/01/30 13:24:15;;;;;;;16.13;7.63;;;15.60;46.10;;;;;;6271499;28;20029;-72
2024/01/30 13:27:16;;;;;;;16.27;7.82;;;15.70;46.10;;;;;;6222070;28;20056;-75
2024/01/30 13:30:19;;;;;;;13.73;6.88;;;15.70;46.00;;;;;;6252807;28;20602;-74
2024/01/30 13:33:20;;;;;;;16.80;8.77;;;15.70;45.80;;;;;;6248190;28;20578;-74
2024/01/30 13:36:25;;;;;;;19.45;7.05;;;15.70;45.80;;;;;;6248642;28;20219;-72
2024/01/30 13:39:26;;;;;;;14.73;6.15;;;15.70;45.80;;;;;;6250519;28;20081;-75
2024/01/30 13:42:27;;;;;;;14.70;7.63;;;15.70;45.90;;;;;;6243055;28;20021;-74
2024/01/30 13:45:28;;;;;;;19.88;7.35;;;15.70;45.90;;;;;;6252932;28;20052;-74
2024/01/30 13:48:29;;;;;;;17.98;7.43;;;15.70;45.80;;;;;;6260242;28;20021;-74
2024/01/30 13:51:30;;;;;;;15.15;7.22;;;15.70;45.70;;;;;;6245652;28;20132;-73
2024/01/30 13:54:31;;;;;;;19.02;6.68;;;15.70;45.50;;;;;;6252394;28;20036;-74
2024/01/30 13:57:35;;;;;;;17.70;7.32;;;15.60;45.50;;;;;;6250443;28;20129;-73
2024/01/30 14:00:36;;;;;;;16.55;7.18;;;15.60;45.60;;;;;;6251005;28;20025;-74
2024/01/30 14:03:37;;;;;;;15.18;6.80;;;15.50;45.60;;;;;;6274531;28;20029;-74
2024/01/30 14:06:38;;;;;;;16.02;5.85;;;15.50;45.70;;;;;;6265870;28;20116;-73
2024/01/30 14:09:39;;;;;;;13.93;5.10;;;15.50;45.60;;;;;;6253536;28;20114;-73
2024/01/30 14:12:47;;;;;;;21.55;6.20;;;15.60;45.50;;;;;;6237502;28;20485;-74
2024/01/30 14:15:49;;;;;;;12.52;4.50;;;15.60;45.50;;;;;;6255475;28;20021;-72
2024/01/30 14:18:50;;;;;;;10.07;5.20;;;15.60;45.40;;;;;;6244130;28;20470;-75
2024/01/30 14:21:51;;;;;;;11.35;4.90;;;15.60;45.30;;;;;;6250389;28;20037;-74
2024/01/30 14:24:52;;;;;;;15.75;5.75;;;15.60;45.20;;;;;;6246953;28;20586;-74
2024/01/30 14:27:53;;;;;;;13.70;4.63;;;15.70;45.20;;;;;;6235449;28;20116;-75
2024/01/30 14:30:55;;;;;;;11.88;4.20;;;15.70;45.30;;;;;;6253737;28;20029;-74
2024/01/30 14:33:56;;;;;;;12.15;4.60;;;15.70;45.10;;;;;;6230109;28;20053;-73
2024/01/30 14:36:58;;;;;;;11.70;3.53;;;15.80;45.00;;;;;;6252951;28;20113;-75
2024/01/30 14:39:58;;;;;;;9.85;4.40;;;15.80;44.90;;;;;;6251498;28;20025;-73
2024/01/30 14:42:59;;;;;;;12.15;5.00;;;15.90;44.80;;;;;;6246623;28;20030;-73
2024/01/30 14:46:01;;;;;;;13.32;4.13;;;15.90;44.60;;;;;;6250015;28;20045;-76
2024/01/30 14:49:07;;;;;;;6.97;3.95;;;15.90;44.50;;;;;;6257598;28;20025;-74
2024/01/30 14:52:10;;;;;;;5.60;3.80;;;15.90;44.50;;;;;;6257129;28;20032;-75
2024/01/30 14:55:11;;;;;;;9.73;4.07;;;15.80;44.30;;;;;;6251399;28;20021;-73
2024/01/30 14:58:13;;;;;;;7.05;4.15;;;15.80;44.10;;;;;;6249790;28;20164;-74
2024/01/30 15:01:14;;;;;;;8.65;4.00;;;15.80;43.80;;;;;;6251382;28;20124;-75
2024/01/30 15:04:18;;;;;;;8.75;3.85;;;15.70;44.00;;;;;;6238469;28;20106;-74
2024/01/30 15:07:19;;;;;;;10.93;4.47;;;15.70;44.10;;;;;;6253709;28;20040;-73
2024/01/30 15:10:22;;;;;;;7.32;4.13;;;15.70;44.30;;;;;;6255107;28;20029;-74
2024/01/30 15:13:23;;;;;;;7.10;3.65;;;15.70;44.40;;;;;;6259324;28;20120;-74
2024/01/30 15:16:25;;;;;;;9.07;3.90;;;15.70;44.30;;;;;;6263443;28;20109;-75
2024/01/30 15:19:27;;;;;;;9.50;4.00;;;15.70;44.30;;;;;;6259782;28;20032;-73
2024/01/30 15:22:28;;;;;;;13.18;4.38;;;15.70;44.30;;;;;;6260288;28;21261;-74
2024/01/30 15:25:29;;;;;;;8.63;4.85;;;15.70;44.40;;;;;;6265281;28;20060;-74
2024/01/30 15:28:37;;;;;;;11.35;5.00;;;15.70;44.30;;;;;;6259412;28;20033;-74
2024/01/30 15:31:38;;;;;;;11.43;5.05;;;15.60;44.30;;;;;;6248767;28;20028;-74
2024/01/30 15:34:40;;;;;;;8.98;5.18;;;15.70;44.40;;;;;;6262791;28;20366;-74
2024/01/30 15:37:41;;;;;;;11.18;5.50;;;15.60;44.50;;;;;;6259247;28;20032;-75
2024/01/30 15:40:45;;;;;;;10.80;5.65;;;15.60;44.70;;;;;;6264777;28;20420;-75